createdAt,value
2023-04-24T00:03:30.392Z,96152.47
2023-04-24T00:08:33.775Z,96149.34
2023-04-24T00:13:36.984Z,96145.72
2023-04-24T00:18:42.454Z,96137.28
2023-04-24T00:23:45.985Z,96131.09
2023-04-24T00:28:49.443Z,96128.38
2023-04-24T00:33:54.173Z,96121.69
2023-04-24T00:38:57.552Z,96125.59
2023-04-24T00:44:01.004Z,96120.44
2023-04-24T00:49:06.849Z,96122.13
2023-04-24T00:54:10.040Z,96120.66
2023-04-24T00:59:14.237Z,96128.59
2023-04-24T01:04:20.196Z,96119.22
2023-04-24T01:09:25.695Z,96109.66
2023-04-24T01:14:29.174Z,96090.63
2023-04-24T01:19:33.689Z,96094.47
2023-04-24T01:24:38.918Z,96090.94
2023-04-24T01:29:43.011Z,96094.09
2023-04-24T01:34:47.665Z,96086.53
2023-04-24T01:39:52.492Z,96088.88
2023-04-24T01:44:56.668Z,96086.09
2023-04-24T01:50:00.696Z,96085.47
2023-04-24T01:55:06.381Z,96079.34
2023-04-24T02:00:12.348Z,96064.78
2023-04-24T02:05:18.114Z,96058.53
2023-04-24T02:10:23.031Z,96059.84
2023-04-24T02:15:26.108Z,96056.66
2023-04-24T02:20:29.625Z,96057.97
2023-04-24T02:25:35.384Z,96059.09
2023-04-24T02:30:38.659Z,96048.53
2023-04-24T02:35:41.864Z,96059.94
2023-04-24T02:40:46.449Z,96054.91
2023-04-24T02:45:49.995Z,96057.41
2023-04-24T02:50:54.079Z,96057.31
2023-04-24T02:55:58.886Z,96042.94
2023-04-24T03:01:02.368Z,96048.88
2023-04-24T03:06:06.784Z,96035.16
2023-04-24T03:11:11.507Z,96038.84
2023-04-24T03:16:15.600Z,96044.13
2023-04-24T03:21:18.991Z,96039.00
2023-04-24T03:26:23.742Z,96026.44
2023-04-24T03:31:39.186Z,96032.41
2023-04-24T03:36:43.120Z,96035.41
2023-04-24T03:41:47.795Z,96030.75
2023-04-24T03:46:55.321Z,96042.16
2023-04-24T03:52:01.448Z,96030.81
2023-04-24T03:57:06.995Z,96034.56
2023-04-24T04:02:13.723Z,96039.91
2023-04-24T04:07:18.630Z,96042.34
2023-04-24T04:12:23.615Z,96045.81
2023-04-24T04:17:26.790Z,96048.19
2023-04-24T04:22:30.116Z,96047.88
2023-04-24T04:27:38.654Z,96047.78
2023-04-24T04:32:47.804Z,96055.81
2023-04-24T04:37:52.328Z,96069.41
2023-04-24T04:43:17.158Z,96058.47
2023-04-24T04:48:26.830Z,96064.78
2023-04-24T04:53:31.839Z,96067.09
2023-04-24T04:58:36.657Z,96076.00
2023-04-24T05:03:41.934Z,96070.41
2023-04-24T05:08:49.785Z,96076.06
2023-04-24T05:14:18.945Z,96089.44
2023-04-24T05:19:22.659Z,96095.94
2023-04-24T05:24:25.989Z,96108.66
2023-04-24T05:29:52.305Z,96098.28
2023-04-24T05:34:55.730Z,96108.06
2023-04-24T05:39:59.508Z,96092.69
2023-04-24T05:45:05.469Z,96115.03
2023-04-24T05:50:09.956Z,96106.56
2023-04-24T05:55:13.241Z,96117.03
2023-04-24T06:00:20.679Z,96121.09
2023-04-24T06:05:32.540Z,96108.53
2023-04-24T06:10:35.787Z,96117.25
2023-04-24T06:15:41.734Z,96119.09
2023-04-24T06:20:48.820Z,96121.09
2023-04-24T06:25:52.333Z,96119.59
2023-04-24T06:30:57.165Z,96133.53
2023-04-24T06:36:00.440Z,96131.69
2023-04-24T06:41:04.438Z,96128.72
2023-04-24T06:46:09.131Z,96127.91
2023-04-24T06:51:12.430Z,96131.00
2023-04-24T06:56:15.663Z,96131.00
2023-04-24T07:01:20.572Z,96133.66
2023-04-24T07:06:24.676Z,96131.03
2023-04-24T07:11:30.219Z,96131.53
2023-04-24T07:16:35.200Z,96136.63
2023-04-24T07:21:38.551Z,96132.03
2023-04-24T07:26:41.946Z,96139.56
2023-04-24T07:31:46.782Z,96128.84
2023-04-24T07:36:50.122Z,96147.00
2023-04-24T07:41:53.410Z,96149.16
2023-04-24T07:46:58.629Z,96154.88
2023-04-24T07:52:03.615Z,96168.34
2023-04-24T07:57:07.792Z,96151.13
2023-04-24T08:02:12.992Z,96149.78
2023-04-24T08:07:16.174Z,96155.16
2023-04-24T08:12:19.494Z,96184.78
2023-04-24T08:17:24.105Z,96187.94
2023-04-24T08:22:27.554Z,96180.44
2023-04-24T08:27:31.008Z,96189.03
2023-04-24T08:32:35.922Z,96180.28
2023-04-24T08:37:39.747Z,96198.78
2023-04-24T08:42:45.413Z,96190.59
2023-04-24T08:47:50.536Z,96185.69
2023-04-24T08:52:55.172Z,96196.59
2023-04-24T08:57:59.792Z,96200.69
2023-04-24T09:03:06.937Z,96196.38
2023-04-24T09:08:12.257Z,96185.22
2023-04-24T09:13:16.740Z,96183.25
2023-04-24T09:18:21.406Z,96194.06
2023-04-24T09:23:24.596Z,96199.78
2023-04-24T09:28:29.067Z,96188.81
2023-04-24T09:33:33.724Z,96189.41
2023-04-24T09:38:38.045Z,96197.50
2023-04-24T09:43:41.358Z,96197.81
2023-04-24T09:48:46.164Z,96195.59
2023-04-24T09:53:49.519Z,96208.53
2023-04-24T09:59:06.813Z,96211.13
2023-04-24T10:04:18.391Z,96225.34
2023-04-24T10:09:23.371Z,96233.50
2023-04-24T10:14:27.557Z,96219.66
2023-04-24T10:19:33.091Z,96210.72
2023-04-24T10:24:38.176Z,96226.59
2023-04-24T10:29:42.360Z,96244.38
2023-04-24T10:34:47.260Z,96226.44
2023-04-24T10:39:52.357Z,96221.84
2023-04-24T10:44:57.368Z,96231.72
2023-04-24T10:50:04.092Z,96215.88
2023-04-24T10:55:08.751Z,96224.25
2023-04-24T11:00:22.777Z,96227.69
2023-04-24T11:05:54.536Z,96235.69
2023-04-24T11:11:00.171Z,96249.41
2023-04-24T11:16:17.097Z,96256.97
2023-04-24T11:21:22.015Z,96265.09
2023-04-24T11:26:25.823Z,96268.22
2023-04-24T11:31:42.193Z,96293.41
2023-04-24T11:36:47.583Z,96289.22
2023-04-24T11:41:51.173Z,96290.56
2023-04-24T11:46:54.368Z,96292.50
2023-04-24T11:52:01.240Z,96287.50
2023-04-24T11:57:08.115Z,96308.63
2023-04-24T12:02:11.592Z,96311.84
2023-04-24T12:07:17.324Z,96307.78
2023-04-24T12:12:21.179Z,96309.19
2023-04-24T12:17:29.451Z,96320.06
2023-04-24T12:22:51.673Z,96319.38
2023-04-24T12:27:57.135Z,96318.69
2023-04-24T12:33:02.223Z,96309.50
2023-04-24T12:38:11.058Z,96296.41
2023-04-24T12:43:18.903Z,96307.44
2023-04-24T12:48:23.318Z,96307.81
2023-04-24T12:53:29.596Z,96334.56
2023-04-24T12:58:32.854Z,96370.00
2023-04-24T13:03:36.238Z,96376.84
2023-04-24T13:08:40.890Z,96380.38
2023-04-24T13:13:44.342Z,96373.38
2023-04-24T13:18:47.595Z,96378.16
2023-04-24T13:23:52.917Z,96377.75
2023-04-24T13:28:56.122Z,96379.94
2023-04-24T13:33:59.358Z,96375.72
2023-04-24T13:39:05.649Z,96368.84
2023-04-24T13:44:08.933Z,96364.44
2023-04-24T13:49:12.575Z,96375.19
2023-04-24T13:54:17.277Z,96385.41
2023-04-24T13:59:22.291Z,96378.50
2023-04-24T14:04:25.919Z,96369.44
2023-04-24T14:09:30.824Z,96366.28
2023-04-24T14:14:34.138Z,96371.69
2023-04-24T14:19:37.991Z,96376.09
2023-04-24T14:24:43.698Z,96355.41
2023-04-24T14:29:47.524Z,96352.69
2023-04-24T14:34:51.579Z,96356.38
2023-04-24T14:40:13.548Z,96358.38
2023-04-24T14:45:21.234Z,96381.44
2023-04-24T14:50:29.153Z,96375.66
2023-04-24T14:55:37.498Z,96383.25
2023-04-24T15:00:41.289Z,96398.06
2023-04-24T15:05:44.763Z,96396.38
2023-04-24T15:10:50.507Z,96405.19
2023-04-24T15:15:54.320Z,96410.19
2023-04-24T15:20:58.214Z,96415.94
2023-04-24T15:26:03.723Z,96414.47
2023-04-24T15:31:08.069Z,96413.66
2023-04-24T15:36:13.007Z,96411.56
2023-04-24T15:41:17.920Z,96410.47
2023-04-24T15:46:21.615Z,96425.28
2023-04-24T15:51:24.920Z,96433.00
2023-04-24T15:56:31.361Z,96433.22
2023-04-24T16:01:35.595Z,96447.28
2023-04-24T16:06:39.574Z,96454.75
2023-04-24T16:11:45.599Z,96451.78
2023-04-24T16:16:49.369Z,96458.09
2023-04-24T16:21:54.418Z,96461.69
2023-04-24T16:26:59.927Z,96468.84
2023-04-24T16:32:03.926Z,96478.31
2023-04-24T16:37:07.649Z,96487.28
2023-04-24T16:42:14.407Z,96484.06
2023-04-24T16:47:18.277Z,96495.63
2023-04-24T16:52:23.060Z,96490.00
2023-04-24T16:57:28.611Z,96488.91
2023-04-24T17:02:32.428Z,96488.78
2023-04-24T17:07:36.392Z,96495.44
2023-04-24T17:12:42.111Z,96502.22
2023-04-24T17:17:46.542Z,96498.50
2023-04-24T17:22:50.588Z,96496.56
2023-04-24T17:27:55.471Z,96505.72
2023-04-24T17:32:58.903Z,96507.94
2023-04-24T17:38:03.988Z,96502.28
2023-04-24T17:43:08.722Z,96512.69
2023-04-24T17:48:12.151Z,96515.13
2023-04-24T17:53:15.825Z,96519.25
2023-04-24T17:58:20.984Z,96524.84
2023-04-24T18:03:24.845Z,96532.06
2023-04-24T18:08:28.537Z,96541.81
2023-04-24T18:13:33.742Z,96545.84
2023-04-24T18:18:38.753Z,96547.78
2023-04-24T18:23:42.617Z,96551.28
2023-04-24T18:28:48.140Z,96559.81
2023-04-24T18:33:53.476Z,96565.22
2023-04-24T18:38:56.932Z,96562.72
2023-04-24T18:44:02.550Z,96573.22
2023-04-24T18:49:06.255Z,96576.69
2023-04-24T18:54:10.150Z,96572.81
2023-04-24T18:59:14.892Z,96585.34
2023-04-24T19:04:20.909Z,96600.25
2023-04-24T19:09:24.815Z,96607.97
2023-04-24T19:14:30.487Z,96612.53
2023-04-24T19:19:34.836Z,96614.00
2023-04-24T19:24:39.167Z,96621.13
2023-04-24T19:29:44.033Z,96629.28
2023-04-24T19:34:47.979Z,96623.94
2023-04-24T19:39:52.015Z,96638.81
2023-04-24T19:44:56.837Z,96632.50
2023-04-24T19:50:01.348Z,96633.00
2023-04-24T19:55:05.915Z,96632.50
2023-04-24T20:00:12.940Z,96627.50
2023-04-24T20:05:17.915Z,96625.91
2023-04-24T20:10:22.277Z,96623.50
2023-04-24T20:15:27.293Z,96626.06
2023-04-24T20:20:31.817Z,96621.16
2023-04-24T20:25:36.588Z,96631.97
2023-04-24T20:30:43.472Z,96635.66
2023-04-24T20:35:47.097Z,96632.94
2023-04-24T20:40:57.868Z,96638.22
2023-04-24T20:46:03.686Z,96632.22
2023-04-24T20:51:07.034Z,96630.34
2023-04-24T20:56:11.489Z,96636.69
2023-04-24T21:01:16.577Z,96633.78
2023-04-24T21:06:19.890Z,96640.31
2023-04-24T21:11:23.344Z,96633.84
2023-04-24T21:16:28.162Z,96633.72
2023-04-24T21:21:32.174Z,96632.66
2023-04-24T21:26:35.723Z,96627.09
2023-04-24T21:31:40.420Z,96622.53
2023-04-24T21:36:43.549Z,96617.13
2023-04-24T21:41:47.657Z,96601.25
2023-04-24T21:46:52.541Z,96604.59
2023-04-24T21:51:55.786Z,96607.16
2023-04-24T21:56:59.161Z,96604.97
2023-04-24T22:02:03.829Z,96593.41
2023-04-24T22:07:07.181Z,96597.13
2023-04-24T22:12:10.467Z,96589.72
2023-04-24T22:17:17.334Z,96588.50
2023-04-24T22:22:22.124Z,96583.84
2023-04-24T22:27:25.423Z,96589.31
2023-04-24T22:32:32.962Z,96583.81
2023-04-24T22:37:36.296Z,96573.00
2023-04-24T22:42:39.426Z,96583.44
2023-04-24T22:47:44.118Z,96575.28
2023-04-24T22:52:47.655Z,96573.00
2023-04-24T22:57:51.102Z,96576.13
2023-04-24T23:02:55.790Z,96574.41
2023-04-24T23:07:59.055Z,96562.00
2023-04-24T23:13:02.063Z,96566.84
2023-04-24T23:18:06.872Z,96559.06
2023-04-24T23:23:10.228Z,96563.09
2023-04-24T23:28:13.495Z,96557.84
2023-04-24T23:33:18.050Z,96556.84
2023-04-24T23:38:21.236Z,96557.56
2023-04-24T23:43:24.519Z,96556.31
2023-04-24T23:48:29.123Z,96552.28
2023-04-24T23:53:32.333Z,96553.97
2023-04-24T23:58:36.835Z,96549.13
